Terminal Aerodrome Forecast
Issued by NWS Sioux Falls, SD

Home | Current Version | Previous Version | Graphics & Text | Print | Product List | Glossary On
Versions: 1 2 3 4 5 6 7 8 9 10 11 12 13 14 15 16 17
000
FTUS43 KFSD 222140 AAB
TAFFSD
TAF AMD
KFSD 222140Z 2222/2318 32012KT P6SM SCT035 BKN060
     FM230000 35012KT P6SM VCSH BKN045
     FM230300 33006KT P6SM SCT040 BKN150
     FM231200 32008KT 6SM -SHRA BKN015 OVC040
     FM231600 34011KT P6SM -SHRA OVC020=

USA.gov is the U.S. government's official web portal to all federal, state and local government web resources and services.